Time;durP1;ratioP1;P1;durP2;ratioP2;P2;SDS_P1;SDS_P2;PMS_P1;PMS_P2;Temp;Humidity;BMP_temperature;BMP_pressure;BME280_temperature;BME280_humidity;BME280_pressure;Samples;Min_cycle;Max_cycle;Signal;HPM_P1;HPM_P2
2023/08/24 00:01:30;;;;;;;4.57;2.60;;;;;;;16.36;91.20;101893.47;6252709;22;20036;-78
2023/08/24 00:03:57;;;;;;;3.33;2.85;;;;;;;16.33;90.90;101895.13;6280593;22;20054;-78
2023/08/24 00:06:24;;;;;;;3.35;2.80;;;;;;;16.30;91.71;101887.97;6279990;22;20716;-78
2023/08/24 00:08:51;;;;;;;3.80;2.88;;;;;;;16.28;91.53;101884.97;6279913;22;20023;-78
2023/08/24 00:11:18;;;;;;;4.13;3.83;;;;;;;16.27;92.03;101882.75;6253430;22;20016;-78
2023/08/24 00:13:51;;;;;;;6.70;3.30;;;;;;;16.24;92.59;101880.94;6280932;22;20016;-78
2023/08/24 00:16:19;;;;;;;4.15;3.75;;;;;;;16.21;92.64;101871.84;6280434;22;20016;-78
2023/08/24 00:18:46;;;;;;;6.65;3.17;;;;;;;16.19;92.49;101873.50;6280910;22;20096;-79
2023/08/24 00:21:22;;;;;;;3.83;3.45;;;;;;;16.17;93.61;101881.25;6253412;22;20032;-77
2023/08/24 00:23:49;;;;;;;4.18;3.78;;;;;;;16.16;93.79;101887.81;6280202;22;20020;-78
2023/08/24 00:26:19;;;;;;;5.40;4.20;;;;;;;16.14;93.82;101877.53;6280825;22;20016;-78
2023/08/24 00:28:46;;;;;;;4.75;3.80;;;;;;;16.16;93.99;101872.47;6280657;22;20039;-78
2023/08/24 00:31:16;;;;;;;4.47;3.92;;;;;;;16.18;94.46;101880.06;6280790;22;20026;-77
2023/08/24 00:33:43;;;;;;;4.30;3.90;;;;;;;16.17;94.33;101879.31;6227337;22;20030;-78
2023/08/24 00:36:09;;;;;;;5.72;3.90;;;;;;;16.19;94.03;101873.50;6253260;22;20095;-78
2023/08/24 00:38:37;;;;;;;4.43;4.05;;;;;;;16.17;94.17;101857.09;6251915;22;20062;-78
2023/08/24 00:41:04;;;;;;;6.00;4.35;;;;;;;16.14;94.56;101847.97;6253327;22;20020;-78
2023/08/24 00:43:31;;;;;;;4.47;4.07;;;;;;;16.15;94.33;101841.41;6252200;22;20020;-77
2023/08/24 00:46:00;;;;;;;4.15;3.58;;;;;;;16.17;95.49;101843.66;6279884;22;20012;-78
2023/08/24 00:48:29;;;;;;;4.53;4.13;;;;;;;16.18;94.48;101845.16;6252188;22;20021;-78
2023/08/24 00:51:00;;;;;;;5.53;4.38;;;;;;;16.19;94.70;101835.88;6252296;22;20369;-78
2023/08/24 00:53:28;;;;;;;10.27;4.30;;;;;;;16.18;95.21;101840.50;6252503;22;20107;-78
2023/08/24 00:55:54;;;;;;;5.15;3.97;;;;;;;16.19;95.72;101841.25;6252974;22;20350;-78
2023/08/24 00:58:21;;;;;;;5.93;4.13;;;;;;;16.18;95.89;101834.41;6252478;22;20075;-78
2023/08/24 01:00:52;;;;;;;4.80;4.38;;;;;;;16.20;96.17;101842.75;6280495;22;20095;-79
2023/08/24 01:03:19;;;;;;;5.55;4.40;;;;;;;16.20;95.84;101843.50;6279390;22;20332;-78
2023/08/24 01:05:45;;;;;;;4.70;3.80;;;;;;;16.16;95.64;101844.84;6279802;22;20438;-78
2023/08/24 01:08:13;;;;;;;5.18;4.00;;;;;;;16.10;95.73;101852.75;6253221;22;20036;-78
2023/08/24 01:10:52;;;;;;;4.25;3.95;;;;;;;16.12;95.60;101852.31;6279878;22;20055;-78
2023/08/24 01:13:30;;;;;;;5.57;4.28;;;;;;;16.09;95.92;101851.28;6279831;22;20067;-78
2023/08/24 01:16:12;;;;;;;4.97;3.67;;;;;;;16.07;95.96;101853.66;6253299;22;20016;-77
2023/08/24 01:18:42;;;;;;;3.80;3.47;;;;;;;16.06;96.73;101848.75;6252560;22;20038;-78
2023/08/24 01:21:09;;;;;;;3.40;3.20;;;;;;;16.02;96.75;101856.94;6279570;22;20020;-78
2023/08/24 01:23:41;;;;;;;3.50;3.30;;;;;;;16.00;96.08;101853.97;6279697;22;20262;-78
2023/08/24 01:26:11;;;;;;;3.15;3.00;;;;;;;16.00;95.95;101843.22;6253189;22;20020;-78
2023/08/24 01:28:38;;;;;;;4.38;3.60;;;;;;;15.98;95.79;101840.28;6252222;22;20016;-78
2023/08/24 01:31:07;;;;;;;4.15;3.47;;;;;;;15.99;95.72;101836.38;6279871;22;20335;-78
2023/08/24 01:33:34;;;;;;;4.97;3.40;;;;;;;15.98;95.93;101837.59;6252138;22;20024;-78
2023/08/24 01:36:01;;;;;;;3.80;3.33;;;;;;;15.95;95.79;101841.91;6279578;22;20460;-78
2023/08/24 01:38:29;;;;;;;6.10;3.17;;;;;;;15.93;95.82;101843.56;6279105;22;20472;-78
2023/08/24 01:41:03;;;;;;;3.50;3.20;;;;;;;15.93;95.70;101846.25;6252606;22;20024;-78
2023/08/24 01:43:35;;;;;;;3.83;3.03;;;;;;;15.93;96.35;101841.63;6279788;22;20438;-77
2023/08/24 01:46:12;;;;;;;3.60;3.30;;;;;;;15.91;96.54;101857.44;6280628;22;20016;-78
2023/08/24 01:48:40;;;;;;;4.35;3.95;;;;;;;15.91;96.77;101862.06;6279664;22;20012;-78
2023/08/24 01:51:10;;;;;;;4.20;3.88;;;;;;;15.88;96.97;101871.75;6251906;22;20083;-78
2023/08/24 01:53:38;;;;;;;4.43;3.95;;;;;;;15.86;97.61;101868.03;6252305;22;20020;-77
2023/08/24 01:56:12;;;;;;;4.95;3.85;;;;;;;15.88;97.20;101858.31;6252562;22;20100;-77
2023/08/24 01:58:39;;;;;;;8.65;4.30;;;;;;;15.91;97.00;101844.00;6280335;22;20016;-78
2023/08/24 02:01:06;;;;;;;4.22;3.85;;;;;;;15.93;96.50;101838.94;6253875;22;20024;-78
2023/08/24 02:03:33;;;;;;;4.10;3.80;;;;;;;15.96;96.63;101835.34;6250018;22;20099;-78
2023/08/24 02:06:00;;;;;;;4.20;3.90;;;;;;;15.98;96.48;101837.59;6253558;22;20110;-78
2023/08/24 02:08:29;;;;;;;4.20;3.80;;;;;;;16.00;96.55;101829.81;6280302;22;20366;-78
2023/08/24 02:10:56;;;;;;;4.22;3.80;;;;;;;16.00;96.88;101830.53;6253467;22;20020;-78
2023/08/24 02:13:23;;;;;;;5.63;4.30;;;;;;;16.00;98.15;101829.81;6252906;22;20020;-77
2023/08/24 02:15:50;;;;;;;5.05;4.18;;;;;;;15.99;98.16;101822.97;6253723;22;20558;-77
2023/08/24 02:18:17;;;;;;;5.55;4.95;;;;;;;16.00;98.81;101830.53;6252495;22;20020;-77
2023/08/24 02:20:43;;;;;;;4.55;4.18;;;;;;;16.04;99.09;101829.66;6280810;22;20020;-78
2023/08/24 02:23:10;;;;;;;8.43;4.70;;;;;;;16.05;99.24;101818.44;6280558;22;20022;-77
2023/08/24 02:25:42;;;;;;;6.32;5.72;;;;;;;16.07;99.82;101824.13;6280342;22;20012;-77
2023/08/24 02:28:09;;;;;;;7.35;5.93;;;;;;;16.09;100.00;101829.03;6254057;22;20038;-77
2023/08/24 02:30:39;;;;;;;10.93;6.50;;;;;;;16.10;100.00;101817.84;6280122;22;20020;-77
2023/08/24 02:33:06;;;;;;;8.77;7.25;;;;;;;16.10;100.00;101801.72;6279429;22;20024;-76
2023/08/24 02:35:32;;;;;;;10.13;6.63;;;;;;;16.10;100.00;101799.03;6280234;22;20012;-76
2023/08/24 02:37:59;;;;;;;8.15;7.15;;;;;;;16.09;100.00;101780.69;6253586;22;20103;-77
2023/08/24 02:40:26;;;;;;;9.52;6.85;;;;;;;16.07;100.00;101766.97;6280204;22;20012;-77
2023/08/24 02:42:52;;;;;;;7.32;6.68;;;;;;;16.01;100.00;101764.16;6281102;22;20020;-76
2023/08/24 02:45:19;;;;;;;8.30;6.82;;;;;;;16.00;100.00;101757.28;6227806;22;20354;-78
2023/08/24 02:47:46;;;;;;;11.05;7.18;;;;;;;16.00;100.00;101751.91;6253717;22;20008;-76
2023/08/24 02:50:12;;;;;;;13.07;7.55;;;;;;;15.97;100.00;101740.16;6228339;22;20540;-77
2023/08/24 02:52:39;;;;;;;7.45;6.63;;;;;;;15.95;100.00;101741.81;6227884;22;20024;-76
2023/08/24 02:55:06;;;;;;;7.80;6.68;;;;;;;15.94;100.00;101733.00;6281133;22;20067;-76
2023/08/24 02:57:34;;;;;;;10.95;7.00;;;;;;;15.94;100.00;101724.22;6227706;22;20460;-76
2023/08/24 03:00:06;;;;;;;7.10;6.50;;;;;;;15.94;100.00;101729.59;6280955;22;20481;-76
2023/08/24 03:02:33;;;;;;;13.48;7.25;;;;;;;15.93;100.00;101734.22;6279702;22;20043;-77
2023/08/24 03:05:00;;;;;;;11.43;7.22;;;;;;;15.94;100.00;101743.00;6253632;22;20019;-77
2023/08/24 03:07:27;;;;;;;9.23;6.90;;;;;;;15.92;100.00;101740.03;6252603;22;20021;-77
2023/08/24 03:09:54;;;;;;;9.50;7.38;;;;;;;15.92;100.00;101748.09;6253212;22;20024;-77
2023/08/24 03:12:20;;;;;;;9.63;7.15;;;;;;;15.92;100.00;101743.47;6280771;22;20067;-77
2023/08/24 03:14:47;;;;;;;12.57;7.18;;;;;;;15.92;100.00;101748.84;6253593;22;20019;-77
2023/08/24 03:17:13;;;;;;;7.97;7.10;;;;;;;15.93;100.00;101739.56;6253054;22;20092;-77
2023/08/24 03:19:40;;;;;;;8.30;7.25;;;;;;;15.94;100.00;101743.00;6252809;22;20107;-78
2023/08/24 03:22:06;;;;;;;9.88;7.82;;;;;;;15.92;100.00;101731.97;6253837;22;20090;-78
2023/08/24 03:24:34;;;;;;;8.43;7.50;;;;;;;15.90;100.00;101734.38;6253113;22;20016;-77
2023/08/24 03:27:00;;;;;;;9.52;7.53;;;;;;;15.89;100.00;101730.94;6253970;22;20107;-78
2023/08/24 03:29:27;;;;;;;10.48;7.45;;;;;;;15.88;100.00;101726.00;6252769;22;20082;-78
2023/08/24 03:31:54;;;;;;;12.50;7.90;;;;;;;15.87;100.00;101725.28;6253264;22;20378;-78
2023/08/24 03:34:20;;;;;;;12.23;8.50;;;;;;;15.86;100.00;101710.34;6280390;22;20036;-77
2023/08/24 03:36:50;;;;;;;9.43;7.88;;;;;;;15.87;100.00;101703.06;6281139;22;20115;-77
2023/08/24 03:39:18;;;;;;;11.20;7.40;;;;;;;15.88;100.00;101707.22;6252949;22;20023;-77
2023/08/24 03:41:44;;;;;;;11.60;8.07;;;;;;;15.87;100.00;101711.09;6253757;22;20476;-78
2023/08/24 03:44:11;;;;;;;9.63;8.52;;;;;;;15.86;100.00;101712.28;6228424;22;20046;-78
2023/08/24 03:46:37;;;;;;;9.25;7.90;;;;;;;15.85;100.00;101708.88;6279887;22;20043;-78
2023/08/24 03:49:04;;;;;;;14.60;8.68;;;;;;;15.85;100.00;101708.13;6253558;22;20020;-78
2023/08/24 03:51:31;;;;;;;9.98;8.35;;;;;;;15.85;100.00;101710.81;6252636;22;20031;-78
2023/08/24 03:53:59;;;;;;;10.52;8.43;;;;;;;15.84;100.00;101702.00;6253341;22;20012;-78
2023/08/24 03:56:26;;;;;;;9.63;8.63;;;;;;;15.83;100.00;101708.56;6247248;22;20048;-78
2023/08/24 03:58:52;;;;;;;10.90;8.32;;;;;;;15.82;100.00;101709.78;6250316;22;20016;-78
2023/08/24 04:01:19;;;;;;;8.88;7.97;;;;;;;15.80;100.00;101696.06;6247006;22;20021;-78
2023/08/24 04:03:46;;;;;;;9.18;7.90;;;;;;;15.80;100.00;101701.44;6247527;22;20385;-78
2023/08/24 04:06:13;;;;;;;9.65;8.63;;;;;;;15.78;100.00;101695.75;6249763;22;20479;-78
2023/08/24 04:08:39;;;;;;;14.05;8.35;;;;;;;15.77;100.00;101698.91;6249672;22;20012;-78
2023/08/24 04:11:06;;;;;;;8.60;7.75;;;;;;;15.75;100.00;101698.59;6248116;22;20083;-78
2023/08/24 04:13:32;;;;;;;10.90;8.32;;;;;;;15.72;100.00;101702.94;6249394;22;20013;-78
2023/08/24 04:15:59;;;;;;;10.25;8.30;;;;;;;15.70;100.00;101696.53;6248247;22;20630;-77
2023/08/24 04:18:26;;;;;;;9.45;8.45;;;;;;;15.67;100.00;101700.84;6247602;22;20351;-78
2023/08/24 04:20:53;;;;;;;8.68;7.50;;;;;;;15.64;100.00;101697.13;6222253;22;20025;-78
2023/08/24 04:23:26;;;;;;;10.45;8.00;;;;;;;15.65;100.00;101697.88;6249554;22;20013;-78
2023/08/24 04:25:54;;;;;;;12.25;8.23;;;;;;;15.62;100.00;101706.81;6250027;22;20071;-78
2023/08/24 04:28:21;;;;;;;8.75;7.95;;;;;;;15.61;100.00;101702.66;6249381;22;20013;-78
2023/08/24 04:30:51;;;;;;;8.95;8.05;;;;;;;15.60;100.00;101706.53;6249829;22;20024;-78
2023/08/24 04:33:18;;;;;;;12.38;8.35;;;;;;;15.59;100.00;101710.44;6249523;22;20087;-78
2023/08/24 04:35:49;;;;;;;8.88;8.00;;;;;;;15.59;100.00;101716.56;6250033;22;20020;-78
2023/08/24 04:38:16;;;;;;;11.30;8.18;;;;;;;15.58;100.00;101715.06;6249811;22;20079;-78
2023/08/24 04:40:53;;;;;;;9.18;8.15;;;;;;;15.57;100.00;101718.19;6249400;22;20503;-78
2023/08/24 04:43:22;;;;;;;8.95;8.15;;;;;;;15.55;100.00;101715.19;6248613;22;20021;-77
2023/08/24 04:45:52;;;;;;;8.93;8.07;;;;;;;15.54;100.00;101711.00;6249640;22;20092;-78
2023/08/24 04:48:23;;;;;;;8.10;7.47;;;;;;;15.53;100.00;101712.19;6248845;22;20447;-78
2023/08/24 04:50:50;;;;;;;8.15;7.35;;;;;;;15.52;100.00;101716.09;6249525;22;20024;-77
2023/08/24 04:53:18;;;;;;;8.73;7.82;;;;;;;15.51;100.00;101711.91;6249979;22;20019;-78
2023/08/24 04:55:45;;;;;;;8.55;7.78;;;;;;;15.52;100.00;101706.09;6250141;22;20013;-78
2023/08/24 04:58:13;;;;;;;9.13;7.65;;;;;;;15.53;100.00;101704.16;6249287;22;20025;-77
2023/08/24 05:00:40;;;;;;;11.80;7.60;;;;;;;15.55;100.00;101710.56;6249108;22;20477;-77
2023/08/24 05:03:07;;;;;;;11.10;8.65;;;;;;;15.57;100.00;101712.81;6249649;22;20089;-77
2023/08/24 05:05:37;;;;;;;11.27;7.68;;;;;;;15.59;100.00;101705.06;6247357;22;20024;-78
2023/08/24 05:08:13;;;;;;;9.93;7.82;;;;;;;15.63;100.00;101711.00;6249693;22;20017;-77
2023/08/24 05:10:40;;;;;;;9.90;8.40;;;;;;;15.68;100.00;101705.03;6248802;22;20028;-78
2023/08/24 05:13:07;;;;;;;10.75;8.55;;;;;;;15.73;100.00;101714.41;6249424;22;20017;-78
2023/08/24 05:15:34;;;;;;;8.48;7.68;;;;;;;15.77;100.00;101715.00;6248863;22;20084;-78
2023/08/24 05:18:00;;;;;;;8.63;7.82;;;;;;;15.81;100.00;101710.22;6249648;22;20040;-78
2023/08/24 05:20:27;;;;;;;11.27;8.02;;;;;;;15.85;100.00;101708.13;6248895;22;20455;-77
2023/08/24 05:22:54;;;;;;;11.07;8.05;;;;;;;15.87;100.00;101701.09;6222674;22;20520;-77
2023/08/24 05:25:22;;;;;;;8.77;7.85;;;;;;;15.91;100.00;101693.63;6248842;22;20464;-77
2023/08/24 05:27:49;;;;;;;9.45;8.38;;;;;;;15.95;100.00;101688.84;6249247;22;20017;-78
2023/08/24 05:30:17;;;;;;;9.18;8.30;;;;;;;16.03;100.00;101681.19;6249553;22;20080;-78
2023/08/24 05:32:43;;;;;;;11.95;8.65;;;;;;;16.13;100.00;101679.22;6249336;22;20048;-78
2023/08/24 05:35:10;;;;;;;9.15;8.27;;;;;;;16.20;100.00;101666.19;6249711;22;20047;-78
2023/08/24 05:37:37;;;;;;;13.32;8.18;;;;;;;16.73;100.00;101675.63;6248890;22;20013;-78
2023/08/24 05:40:05;;;;;;;9.82;8.57;;;;;;;18.03;99.37;101669.97;6249559;22;20087;-78
2023/08/24 05:42:31;;;;;;;9.05;7.72;;;;;;;19.17;90.37;101675.03;6248421;22;20023;-79
2023/08/24 05:44:58;;;;;;;9.18;7.65;;;;;;;20.06;84.55;101669.56;6249243;22;20016;-78
2023/08/24 05:47:24;;;;;;;9.05;7.60;;;;;;;20.79;80.14;101676.06;6246952;22;20427;-83
2023/08/24 05:49:51;;;;;;;11.38;7.53;;;;;;;21.34;76.13;101661.13;6247410;22;20016;-77
2023/08/24 05:52:18;;;;;;;11.20;7.50;;;;;;;21.67;74.97;101659.63;6249023;22;20061;-78
2023/08/24 05:54:44;;;;;;;8.60;7.50;;;;;;;21.90;73.49;101650.97;6249439;22;20008;-79
2023/08/24 05:57:11;;;;;;;8.68;7.78;;;;;;;22.07;71.81;101658.34;6266069;22;20417;-76
2023/08/24 05:59:37;;;;;;;7.65;7.03;;;;;;;22.10;71.05;101649.97;6252173;22;20494;-76
2023/08/24 06:02:04;;;;;;;12.07;8.40;;;;;;;22.34;70.08;101654.06;6279843;22;20473;-77
2023/08/24 06:04:31;;;;;;;9.93;7.43;;;;;;;22.37;69.34;101650.38;6279239;22;20066;-77
2023/08/24 06:06:57;;;;;;;8.02;7.40;;;;;;;22.53;68.72;101642.13;6279958;22;20088;-77
2023/08/24 06:09:24;;;;;;;15.80;8.10;;;;;;;22.76;67.96;101647.44;6279237;22;20442;-78
2023/08/24 06:11:51;;;;;;;8.35;7.10;;;;;;;22.79;68.17;101647.19;6279315;22;20056;-77
2023/08/24 06:14:17;;;;;;;17.77;7.97;;;;;;;22.75;67.92;101643.25;6279569;22;20008;-79
2023/08/24 06:16:44;;;;;;;12.65;7.05;;;;;;;22.76;68.02;101637.34;6252817;22;20853;-78
2023/08/24 06:19:10;;;;;;;10.68;6.90;;;;;;;22.51;69.21;101635.72;6279839;22;20024;-79
2023/08/24 06:21:37;;;;;;;12.93;8.13;;;;;;;22.19;70.09;101636.13;6278891;22;20051;-79
2023/08/24 06:24:04;;;;;;;7.78;6.97;;;;;;;22.16;70.91;101636.38;6279701;22;20022;-78
2023/08/24 06:26:30;;;;;;;9.07;6.93;;;;;;;21.99;71.49;101632.97;6278184;22;20062;-77
2023/08/24 06:28:57;;;;;;;11.10;7.72;;;;;;;21.84;72.80;101622.41;6279950;22;20016;-78
2023/08/24 06:31:23;;;;;;;8.75;7.60;;;;;;;21.45;73.84;101617.06;6251224;22;20020;-78
2023/08/24 06:33:50;;;;;;;13.88;7.35;;;;;;;21.29;75.08;101602.31;6252215;22;20024;-79
2023/08/24 06:36:16;;;;;;;11.68;7.13;;;;;;;21.11;76.51;101608.19;6279480;22;20434;-78
2023/08/24 06:38:43;;;;;;;12.45;7.68;;;;;;;21.04;76.76;101605.97;6279495;22;20016;-77
2023/08/24 06:41:12;;;;;;;9.30;7.65;;;;;;;20.97;77.37;101607.94;6278183;22;20016;-78
2023/08/24 06:43:39;;;;;;;13.27;8.73;;;;;;;20.92;78.53;101605.97;6279183;22;20016;-79
2023/08/24 06:46:07;;;;;;;11.07;7.90;;;;;;;20.94;78.68;101600.06;6280808;22;20484;-79
2023/08/24 06:48:35;;;;;;;13.00;7.88;;;;;;;20.90;78.42;101602.25;6280044;22;20028;-78
2023/08/24 06:51:01;;;;;;;16.58;8.07;;;;;;;20.90;78.23;101596.84;6253774;22;20433;-78
2023/08/24 06:53:28;;;;;;;15.63;8.23;;;;;;;20.91;78.96;101596.38;6279457;22;20040;-79
2023/08/24 06:55:55;;;;;;;11.80;8.02;;;;;;;21.00;78.67;101586.53;6279980;22;20048;-79
2023/08/24 06:58:22;;;;;;;14.63;8.40;;;;;;;21.08;78.93;101584.81;6280576;22;20448;-78
2023/08/24 07:00:52;;;;;;;9.55;8.43;;;;;;;21.08;79.35;101574.00;6281331;22;20071;-81
2023/08/24 07:03:19;;;;;;;11.27;8.35;;;;;;;21.08;79.09;101582.13;6280474;22;20032;-81
2023/08/24 07:05:46;;;;;;;11.13;8.95;;;;;;;21.09;79.67;101597.13;6280938;22;20019;-79
2023/08/24 07:08:13;;;;;;;13.15;8.40;;;;;;;21.18;78.72;101588.75;6279998;22;20098;-80
2023/08/24 07:10:40;;;;;;;9.98;8.32;;;;;;;21.27;79.43;101585.81;6279899;22;20020;-82
2023/08/24 07:13:07;;;;;;;13.80;8.65;;;;;;;21.41;80.09;101582.09;6280681;22;20532;-81
2023/08/24 07:15:34;;;;;;;11.60;8.45;;;;;;;21.51;77.69;101583.34;6279748;22;20369;-82
2023/08/24 07:18:02;;;;;;;16.83;8.70;;;;;;;21.52;77.48;101570.53;6280663;22;20025;-81
2023/08/24 07:20:29;;;;;;;11.90;8.75;;;;;;;21.41;78.35;101571.28;6279897;22;20473;-82
2023/08/24 07:22:57;;;;;;;9.70;8.80;;;;;;;21.49;78.39;101569.53;6280197;22;20019;-82
2023/08/24 07:25:23;;;;;;;13.63;9.05;;;;;;;21.68;78.38;101563.56;6252819;22;20016;-81
2023/08/24 07:27:50;;;;;;;15.07;9.23;;;;;;;21.85;77.45;101583.25;6280920;22;20016;-79
2023/08/24 07:30:17;;;;;;;15.95;10.40;;;;;;;21.98;77.15;101586.16;6280533;22;20016;-82
2023/08/24 07:32:58;;;;;;;17.75;9.77;;;;;;;22.04;76.75;101580.72;6280791;22;20099;-82
2023/08/24 07:35:26;;;;;;;29.73;10.23;;;;;;;22.11;76.10;101580.19;6252598;22;20016;-81
2023/08/24 07:37:53;;;;;;;22.10;9.82;;;;;;;22.21;75.97;101584.84;6280015;22;20390;-82
2023/08/24 07:40:20;;;;;;;15.48;9.43;;;;;;;22.28;74.73;101578.16;6279755;22;20018;-82
2023/08/24 07:42:50;;;;;;;15.40;9.20;;;;;;;22.45;75.50;101575.34;6253809;22;20026;-82
2023/08/24 07:45:17;;;;;;;19.57;10.20;;;;;;;22.52;73.69;101569.38;6280790;22;20039;-81
2023/08/24 07:47:44;;;;;;;11.05;9.95;;;;;;;22.59;73.53;101571.56;6280867;22;20075;-81
2023/08/24 07:50:11;;;;;;;11.75;9.35;;;;;;;22.60;72.99;101573.03;6253195;22;20066;-82
2023/08/24 07:52:38;;;;;;;14.50;10.73;;;;;;;22.78;73.09;101574.41;6279323;22;20016;-84
2023/08/24 07:55:07;;;;;;;16.38;9.73;;;;;;;22.98;71.71;101565.13;6280433;22;20016;-82
2023/08/24 07:57:34;;;;;;;14.00;9.30;;;;;;;23.10;70.65;101575.41;6279274;22;20016;-81
2023/08/24 08:00:02;;;;;;;12.48;9.68;;;;;;;23.23;70.52;101572.78;6280292;22;20012;-84
2023/08/24 08:02:41;;;;;;;12.13;10.18;;;;;;;23.38;69.94;101582.53;6256072;22;20425;-84
2023/08/24 08:05:10;;;;;;;11.40;10.30;;;;;;;23.62;69.75;101579.84;6279906;22;20051;-84
2023/08/24 08:07:37;;;;;;;11.48;10.02;;;;;;;23.71;68.58;101578.78;6252518;22;20792;-85
2023/08/24 08:10:04;;;;;;;11.07;9.95;;;;;;;23.64;68.09;101571.19;6283415;22;20019;-87
2023/08/24 08:12:35;;;;;;;17.17;10.70;;;;;;;23.66;69.14;101580.28;6283527;22;20016;-85
2023/08/24 08:15:02;;;;;;;;;;;;;;;23.73;69.26;101579.00;6283830;22;20411;-86
2023/08/24 08:17:30;;;;;;;15.65;9.88;;;;;;;23.74;67.05;101567.59;6283544;22;19989;-84
2023/08/24 08:19:57;;;;;;;13.90;9.27;;;;;;;23.83;68.06;101556.38;6282521;22;20022;-86
2023/08/24 08:22:25;;;;;;;10.95;9.82;;;;;;;23.85;67.24;101553.16;6253851;22;20012;-85
2023/08/24 08:24:54;;;;;;;11.13;9.98;;;;;;;23.85;67.90;101550.44;6254463;22;20467;-86
2023/08/24 08:27:21;;;;;;;13.70;9.93;;;;;;;23.92;67.21;101545.16;6282708;22;20028;-84
2023/08/24 08:29:48;;;;;;;15.05;10.57;;;;;;;23.94;67.88;101545.38;6255667;22;20016;-78
2023/08/24 08:32:14;;;;;;;12.13;10.07;;;;;;;24.07;67.96;101550.16;6284408;22;20016;-83
2023/08/24 08:34:41;;;;;;;12.10;10.27;;;;;;;24.07;67.65;101550.16;6283035;22;20023;-81
2023/08/24 08:37:08;;;;;;;18.90;10.27;;;;;;;24.02;66.50;101542.78;6284154;22;20031;-86
2023/08/24 08:39:34;;;;;;;16.70;10.50;;;;;;;24.02;66.10;101531.19;6284472;22;20810;-86
2023/08/24 08:42:01;;;;;;;13.50;10.38;;;;;;;24.03;66.19;101533.38;6283689;22;20012;-84
2023/08/24 08:44:32;;;;;;;24.60;11.40;;;;;;;24.08;65.98;101529.13;6284282;22;20442;-81
2023/08/24 08:46:59;;;;;;;45.08;12.23;;;;;;;24.18;65.35;101522.81;6280839;22;20044;-81
2023/08/24 08:49:26;;;;;;;21.40;10.57;;;;;;;24.18;63.90;101517.38;6279371;22;20012;-82
2023/08/24 08:51:52;;;;;;;16.70;10.07;;;;;;;24.29;63.99;101513.78;6253326;22;20505;-81
2023/08/24 08:54:19;;;;;;;22.23;9.45;;;;;;;24.34;64.07;101515.69;6279992;22;20476;-82
2023/08/24 08:56:46;;;;;;;20.33;10.32;;;;;;;24.44;63.05;101505.88;6253063;22;20435;-82
2023/08/24 08:59:14;;;;;;;17.65;9.77;;;;;;;24.55;63.52;101494.09;6253246;22;20413;-82
2023/08/24 09:01:41;;;;;;;20.25;10.63;;;;;;;24.69;62.13;101495.59;6251852;22;20070;-79
2023/08/24 09:04:08;;;;;;;19.02;10.00;;;;;;;24.82;61.87;101483.97;6279699;22;20065;-79
2023/08/24 09:06:35;;;;;;;12.35;10.05;;;;;;;24.91;61.53;101480.84;6279607;22;20020;-79
2023/08/24 09:09:02;;;;;;;12.27;10.13;;;;;;;25.02;60.98;101479.94;6281522;22;20024;-79
2023/08/24 09:11:29;;;;;;;13.57;9.18;;;;;;;25.05;60.89;101476.19;6279872;22;20023;-79
2023/08/24 09:13:55;;;;;;;13.43;8.98;;;;;;;25.15;61.26;101488.13;6253906;22;20018;-79
2023/08/24 09:16:22;;;;;;;11.63;9.40;;;;;;;25.28;61.87;101482.66;6279791;22;20027;-81
2023/08/24 09:18:49;;;;;;;17.50;10.00;;;;;;;25.49;60.01;101477.31;6279868;22;20012;-81
2023/08/24 09:21:15;;;;;;;16.52;9.20;;;;;;;25.72;59.43;101474.88;6280392;22;20012;-79
2023/08/24 09:23:53;;;;;;;15.40;9.48;;;;;;;25.96;59.39;101469.16;6252334;22;20012;-78
2023/08/24 09:26:30;;;;;;;16.67;10.32;;;;;;;25.98;59.08;101465.88;6279470;22;20420;-79
2023/08/24 09:28:57;;;;;;;13.35;9.60;;;;;;;26.06;59.36;101461.22;6280207;22;20142;-80
2023/08/24 09:31:38;;;;;;;10.55;8.85;;;;;;;26.30;58.53;101466.38;6279235;22;20016;-80
2023/08/24 09:34:06;;;;;;;13.13;9.95;;;;;;;26.29;56.97;101450.53;6279293;22;20017;-80
2023/08/24 09:36:36;;;;;;;12.60;9.50;;;;;;;26.38;56.55;101455.56;6279188;22;20027;-80
2023/08/24 09:39:04;;;;;;;15.32;9.32;;;;;;;26.41;55.41;101449.00;6280297;22;20020;-80
2023/08/24 09:41:38;;;;;;;13.38;8.85;;;;;;;26.46;56.39;101446.13;6279033;22;20417;-80
2023/08/24 09:44:05;;;;;;;12.27;9.50;;;;;;;26.43;56.60;101438.28;6280149;22;20035;-80
2023/08/24 09:46:32;;;;;;;13.55;8.27;;;;;;;26.44;57.58;101439.75;6279189;22;20446;-80
2023/08/24 09:49:01;;;;;;;10.82;8.02;;;;;;;26.39;56.15;101440.66;6252395;22;20015;-79
2023/08/24 09:51:27;;;;;;;19.27;9.48;;;;;;;26.41;57.22;101440.81;6251153;22;20048;-79
2023/08/24 09:53:58;;;;;;;11.90;9.52;;;;;;;26.38;56.67;101445.38;6279913;22;20036;-80
2023/08/24 09:56:27;;;;;;;13.55;8.63;;;;;;;26.42;55.86;101439.56;6278841;22;20016;-79
2023/08/24 09:58:55;;;;;;;11.05;8.73;;;;;;;26.42;56.60;101451.19;6253170;22;20047;-80
2023/08/24 10:01:23;;;;;;;11.68;9.13;;;;;;;26.38;56.77;101441.91;6226288;22;20079;-80
2023/08/24 10:03:56;;;;;;;11.65;8.95;;;;;;;26.29;56.56;101429.44;6251652;22;20604;-80
2023/08/24 10:06:27;;;;;;;15.02;9.25;;;;;;;26.16;58.27;101451.31;6279302;22;20027;-79
2023/08/24 10:08:58;;;;;;;11.55;9.18;;;;;;;26.18;57.88;101451.53;6279870;22;20039;-79
2023/08/24 10:11:28;;;;;;;36.42;10.18;;;;;;;26.11;57.83;101454.91;6278800;22;20031;-79
2023/08/24 10:14:13;;;;;;;12.18;8.95;;;;;;;25.99;59.17;101449.00;6280078;22;20236;-79
2023/08/24 10:16:42;;;;;;;32.75;8.48;;;;;;;25.86;59.95;101457.94;6251098;22;20342;-80
2023/08/24 10:19:09;;;;;;;13.40;8.85;;;;;;;25.72;59.35;101459.25;6280131;22;20414;-79
2023/08/24 10:21:37;;;;;;;13.60;9.35;;;;;;;25.50;59.98;101435.16;6280264;22;20023;-78
2023/08/24 10:24:04;;;;;;;12.60;9.27;;;;;;;25.39;61.14;101429.94;6254114;22;20012;-76
2023/08/24 10:26:32;;;;;;;10.68;9.35;;;;;;;25.29;61.39;101428.91;6280249;22;20134;-76
2023/08/24 10:29:00;;;;;;;10.57;9.48;;;;;;;25.18;61.67;101432.59;6253439;22;20016;-76
2023/08/24 10:31:28;;;;;;;12.48;9.15;;;;;;;25.13;62.20;101436.16;6279435;22;20198;-76
2023/08/24 10:33:56;;;;;;;18.42;9.88;;;;;;;25.01;62.80;101426.72;6280726;22;20407;-76
2023/08/24 10:36:23;;;;;;;14.02;10.27;;;;;;;24.89;63.61;101426.16;6280160;22;20031;-76
2023/08/24 10:38:49;;;;;;;14.90;10.55;;;;;;;24.76;64.74;101434.34;6280854;22;20019;-76
2023/08/24 10:41:16;;;;;;;15.88;10.77;;;;;;;24.66;66.62;101427.84;6280838;22;20087;-76
2023/08/24 10:43:50;;;;;;;15.93;11.15;;;;;;;24.70;68.57;101409.94;6280496;22;20078;-76
2023/08/24 10:46:16;;;;;;;17.40;11.48;;;;;;;24.72;69.31;101423.78;6280308;22;20020;-76
2023/08/24 10:48:44;;;;;;;16.20;12.18;;;;;;;24.70;69.69;101429.00;6280547;22;20140;-75
2023/08/24 10:51:16;;;;;;;14.50;12.68;;;;;;;24.76;71.17;101437.06;6280898;22;20020;-76
2023/08/24 10:53:45;;;;;;;15.23;12.95;;;;;;;24.74;71.77;101437.59;6280744;22;20012;-79
2023/08/24 10:56:16;;;;;;;13.38;12.15;;;;;;;24.80;73.20;101427.31;6280626;22;20424;-79
2023/08/24 10:58:44;;;;;;;15.32;12.13;;;;;;;24.84;74.67;101422.28;6280602;22;20384;-79
2023/08/24 11:01:18;;;;;;;17.25;13.13;;;;;;;24.94;73.29;101419.91;6280198;22;20394;-79
2023/08/24 11:03:55;;;;;;;15.88;12.05;;;;;;;25.06;72.42;101417.72;6280705;22;20470;-79
2023/08/24 11:06:23;;;;;;;14.85;12.82;;;;;;;25.00;70.47;101411.66;6280079;22;20027;-79
2023/08/24 11:09:16;;;;;;;14.60;12.93;;;;;;;24.99;70.84;101418.34;6280771;22;20311;-79
2023/08/24 11:11:55;;;;;;;17.20;12.68;;;;;;;24.92;70.57;101408.78;6280473;22;20023;-79
2023/08/24 11:14:25;;;;;;;13.32;11.90;;;;;;;25.00;72.06;101414.38;6279405;22;20040;-78
2023/08/24 11:16:52;;;;;;;22.67;12.30;;;;;;;24.91;71.42;101415.50;6280160;22;20420;-78
2023/08/24 11:19:19;;;;;;;12.63;11.43;;;;;;;24.90;72.31;101411.31;6279815;22;20070;-78
2023/08/24 11:21:46;;;;;;;21.20;11.60;;;;;;;24.96;71.19;101411.22;6280640;22;20468;-78